MSC Clorinda — 3FDW7 — position and weather

sailwx.info

Track history (hours):
 
Tides and Currents Weather Stations Pressure Air Temp Water Temp Dewpoint Dewpoint Depression Visibility Wind Speed Wind Dir Waves Ship Positions

MSC Clorinda

Last reported at 2015-Jan-13 16:22 UTC. Time now 2015-Jan-30 02:42 UTC.
Position N 34°16' E 025°12'.
Warning: this ship's position is 16 days out of date.

Length 366 m; draft 14.9 m.

Type: Ship (hazmat cat A). MMSI: 373233000.

Date/timePositionNaut miles runAvg speedWind from/ knotsBaromVisibWave heightAir tempDewpointWater temp
2015-Jan-13 16:22N 34°16' E 025°12'52116.3
2015-Jan-12 08:29N 38°13' E 015°36'1010.5
2015-Jan-12 07:32N 38°21' E 015°44'12 0.3
2015-Jan-10 13:29N 38°22' E 015°29'1415.4
2015-Jan-10 12:33N 38°20' E 015°11'5215.5
2015-Jan-10 09:13N 38°22' E 014°05'1116.7
2015-Jan-10 08:33N 38°23' E 013°51'1716.8
2015-Jan-10 07:33N 38°25' E 013°30'1716.8
2015-Jan-10 06:33N 38°26' E 013°08'1717.2
2015-Jan-10 05:34N 38°25' E 012°46'1817.8
2015-Jan-10 04:33N 38°23' E 012°24'85218.0
2015-Jan-08 05:16N 35°60' W 005°10'1318.7
2015-Jan-08 04:33N 35°58' W 005°26'17617.6
2015-Jan-07 18:33N 36°30' W 009°01'4916.1
2015-Jan-07 15:30N 37°09' W 009°39'2218.1
2015-Jan-07 14:16N 37°30' W 009°45'1317.9
2015-Jan-07 13:33N 37°43' W 009°49'1817.7
2015-Jan-07 12:33N 38°00' W 009°54'1818.1
2015-Jan-07 11:33N 38°18' W 009°59'1817.9
2015-Jan-07 10:33N 38°35' W 010°04'1717.4
2015-Jan-07 09:33N 38°52' W 010°07'1817.8
2015-Jan-07 08:32N 39°10' W 010°07'66916.7
2015-Jan-05 16:33N 49°30' W 004°15'1615.6
2015-Jan-05 15:33N 49°38' W 003°54'1716.8
2015-Jan-05 14:33N 49°46' W 003°31'2218.3
2015-Jan-05 13:21N 49°56' W 003°01'1518.7
2015-Jan-05 12:33N 50°02' W 002°40'1818.2
2015-Jan-05 11:33N 50°07' W 002°13'2416.2
2015-Jan-05 10:04N 50°13' W 001°36'914.5
2015-Jan-05 09:28N 50°15' W 001°23'2713.6
2015-Jan-05 07:30N 50°22' W 000°43'1414.7
2015-Jan-05 06:33N 50°26' W 000°22'1716.4
2015-Jan-05 05:30N 50°31' E 000°04'1717.7
2015-Jan-05 04:33N 50°35' E 000°30'1817.8
2015-Jan-05 03:33N 50°44' E 000°54'1717.0
2015-Jan-05 02:33N 50°54' E 001°16'1515.4
2015-Jan-05 01:33N 51°05' E 001°33'1514.7
2015-Jan-05 00:33N 51°16' E 001°49'1615.8
2015-Jan-04 23:34N 51°29' E 002°02'1716.8
2015-Jan-04 22:34N 51°41' E 002°20'1817.9
2015-Jan-04 21:33N 51°55' E 002°40'1716.6
2015-Jan-04 20:33N 52°02' E 003°04'1717.4
2015-Jan-04 19:33N 52°04' E 003°32'1414.0
2015-Jan-04 18:33N 52°02' E 003°55'8 7.7
2015-Jan-04 17:34N 51°58' E 004°05'1 0.7
2015-Jan-04 16:33N 51°58' E 004°04'0 0.0
2015-Jan-04 15:33N 51°58' E 004°04'0 0.0
2015-Jan-04 14:34N 51°58' E 004°04'0 0.0
2015-Jan-04 13:34N 51°58' E 004°04'0 0.0
2015-Jan-04 12:33N 51°58' E 004°04'0 0.0
2015-Jan-04 11:34N 51°58' E 004°04'0 0.0
2015-Jan-04 10:34N 51°58' E 004°04'0 0.0
2015-Jan-04 09:33N 51°58' E 004°04'0 0.0
2015-Jan-04 08:34N 51°58' E 004°04'0 0.0
2015-Jan-04 07:34N 51°58' E 004°04'0 0.0
2015-Jan-04 06:34N 51°58' E 004°04'0 0.0
2015-Jan-04 05:33N 51°58' E 004°04'0 0.0
2015-Jan-04 04:34N 51°58' E 004°04'0 0.0
2015-Jan-04 03:34N 51°58' E 004°04'0 0.0
2015-Jan-04 02:34N 51°58' E 004°04'0 0.0
2015-Jan-04 01:34N 51°58' E 004°04'0 0.0
2015-Jan-04 00:34N 51°58' E 004°04'0 0.0
2015-Jan-03 23:34N 51°58' E 004°04'0 0.0
2015-Jan-03 22:34N 51°58' E 004°04'0 0.0
2015-Jan-03 21:34N 51°58' E 004°04'0 0.0
2015-Jan-03 20:33N 51°58' E 004°04'0 0.0
2015-Jan-03 19:33N 51°58' E 004°04'3 3.3
2015-Jan-03 18:34N 51°60' E 003°60'9 8.6
2015-Jan-03 17:34N 51°60' E 003°46'9 9.0
2015-Jan-03 16:33N 51°57' E 003°32'  
Track history (hours):
 
Tides and Currents Weather Stations Pressure Air Temp Water Temp Dewpoint Dewpoint Depression Visibility Wind Speed Wind Dir Waves Ship Positions

MSC Clorinda

Last reported at 2015-Jan-13 16:22 UTC. Time now 2015-Jan-30 02:42 UTC.
Position N 34°16' E 025°12'.
Warning: this ship's position is 16 days out of date.

Length 366 m; draft 14.9 m.

Type: Ship (hazmat cat A). MMSI: 373233000.

Date/timePositionNaut miles runAvg speedWind from/ knotsBaromVisibWave heightAir tempDewpointWater temp
2015-Jan-13 16:22N 34°16' E 025°12'52116.3
2015-Jan-12 08:29N 38°13' E 015°36'1010.5
2015-Jan-12 07:32N 38°21' E 015°44'12 0.3
2015-Jan-10 13:29N 38°22' E 015°29'1415.4
2015-Jan-10 12:33N 38°20' E 015°11'5215.5
2015-Jan-10 09:13N 38°22' E 014°05'1116.7
2015-Jan-10 08:33N 38°23' E 013°51'1716.8
2015-Jan-10 07:33N 38°25' E 013°30'1716.8
2015-Jan-10 06:33N 38°26' E 013°08'1717.2
2015-Jan-10 05:34N 38°25' E 012°46'1817.8
2015-Jan-10 04:33N 38°23' E 012°24'85218.0
2015-Jan-08 05:16N 35°60' W 005°10'1318.7
2015-Jan-08 04:33N 35°58' W 005°26'17617.6
2015-Jan-07 18:33N 36°30' W 009°01'4916.1
2015-Jan-07 15:30N 37°09' W 009°39'2218.1
2015-Jan-07 14:16N 37°30' W 009°45'1317.9
2015-Jan-07 13:33N 37°43' W 009°49'1817.7
2015-Jan-07 12:33N 38°00' W 009°54'1818.1
2015-Jan-07 11:33N 38°18' W 009°59'1817.9
2015-Jan-07 10:33N 38°35' W 010°04'1717.4
2015-Jan-07 09:33N 38°52' W 010°07'1817.8
2015-Jan-07 08:32N 39°10' W 010°07'66916.7
2015-Jan-05 16:33N 49°30' W 004°15'1615.6
2015-Jan-05 15:33N 49°38' W 003°54'1716.8
2015-Jan-05 14:33N 49°46' W 003°31'2218.3
2015-Jan-05 13:21N 49°56' W 003°01'1518.7
2015-Jan-05 12:33N 50°02' W 002°40'1818.2
2015-Jan-05 11:33N 50°07' W 002°13'2416.2
2015-Jan-05 10:04N 50°13' W 001°36'914.5
2015-Jan-05 09:28N 50°15' W 001°23'2713.6
2015-Jan-05 07:30N 50°22' W 000°43'1414.7
2015-Jan-05 06:33N 50°26' W 000°22'1716.4
2015-Jan-05 05:30N 50°31' E 000°04'1717.7
2015-Jan-05 04:33N 50°35' E 000°30'1817.8
2015-Jan-05 03:33N 50°44' E 000°54'1717.0
2015-Jan-05 02:33N 50°54' E 001°16'1515.4
2015-Jan-05 01:33N 51°05' E 001°33'1514.7
2015-Jan-05 00:33N 51°16' E 001°49'1615.8
2015-Jan-04 23:34N 51°29' E 002°02'1716.8
2015-Jan-04 22:34N 51°41' E 002°20'1817.9
2015-Jan-04 21:33N 51°55' E 002°40'1716.6
2015-Jan-04 20:33N 52°02' E 003°04'1717.4
2015-Jan-04 19:33N 52°04' E 003°32'1414.0
2015-Jan-04 18:33N 52°02' E 003°55'8 7.7
2015-Jan-04 17:34N 51°58' E 004°05'1 0.7
2015-Jan-04 16:33N 51°58' E 004°04'0 0.0
2015-Jan-04 15:33N 51°58' E 004°04'0 0.0
2015-Jan-04 14:34N 51°58' E 004°04'0 0.0
2015-Jan-04 13:34N 51°58' E 004°04'0 0.0
2015-Jan-04 12:33N 51°58' E 004°04'0 0.0
2015-Jan-04 11:34N 51°58' E 004°04'0 0.0
2015-Jan-04 10:34N 51°58' E 004°04'0 0.0
2015-Jan-04 09:33N 51°58' E 004°04'0 0.0
2015-Jan-04 08:34N 51°58' E 004°04'0 0.0
2015-Jan-04 07:34N 51°58' E 004°04'0 0.0
2015-Jan-04 06:34N 51°58' E 004°04'0 0.0
2015-Jan-04 05:33N 51°58' E 004°04'0 0.0
2015-Jan-04 04:34N 51°58' E 004°04'0 0.0
2015-Jan-04 03:34N 51°58' E 004°04'0 0.0
2015-Jan-04 02:34N 51°58' E 004°04'0 0.0
2015-Jan-04 01:34N 51°58' E 004°04'0 0.0
2015-Jan-04 00:34N 51°58' E 004°04'0 0.0
2015-Jan-03 23:34N 51°58' E 004°04'0 0.0
2015-Jan-03 22:34N 51°58' E 004°04'0 0.0
2015-Jan-03 21:34N 51°58' E 004°04'0 0.0
2015-Jan-03 20:33N 51°58' E 004°04'0 0.0
2015-Jan-03 19:33N 51°58' E 004°04'3 3.3
2015-Jan-03 18:34N 51°60' E 003°60'9 8.6
2015-Jan-03 17:34N 51°60' E 003°46'9 9.0
2015-Jan-03 16:33N 51°57' E 003°32'  

Dump ship's entire track history